sensor_id;sensor_type;location;lat;lon;timestamp;temperature;humidity
16412;DHT22;8315;52.104;6.304;2023-02-18T00:01:30;9.80;98.40
16412;DHT22;8315;52.104;6.304;2023-02-18T00:03:58;9.80;98.40
16412;DHT22;8315;52.104;6.304;2023-02-18T00:06:26;9.80;98.40
16412;DHT22;8315;52.104;6.304;2023-02-18T00:08:55;9.80;98.40
16412;DHT22;8315;52.104;6.304;2023-02-18T00:11:24;9.80;98.40
16412;DHT22;8315;52.104;6.304;2023-02-18T00:13:52;9.90;98.40
16412;DHT22;8315;52.104;6.304;2023-02-18T00:16:20;9.90;98.40
16412;DHT22;8315;52.104;6.304;2023-02-18T00:18:47;9.90;98.40
16412;DHT22;8315;52.104;6.304;2023-02-18T00:21:14;9.90;98.40
16412;DHT22;8315;52.104;6.304;2023-02-18T00:23:42;9.90;98.40
16412;DHT22;8315;52.104;6.304;2023-02-18T00:26:09;9.90;98.40
16412;DHT22;8315;52.104;6.304;2023-02-18T00:28:40;10.00;98.40
16412;DHT22;8315;52.104;6.304;2023-02-18T00:31:08;10.00;98.40
16412;DHT22;8315;52.104;6.304;2023-02-18T00:33:36;10.00;98.40
16412;DHT22;8315;52.104;6.304;2023-02-18T00:36:03;10.00;98.40
16412;DHT22;8315;52.104;6.304;2023-02-18T00:38:32;10.10;98.40
16412;DHT22;8315;52.104;6.304;2023-02-18T00:40:59;10.10;98.40
16412;DHT22;8315;52.104;6.304;2023-02-18T00:43:26;10.10;98.40
16412;DHT22;8315;52.104;6.304;2023-02-18T00:45:55;10.20;98.40
16412;DHT22;8315;52.104;6.304;2023-02-18T00:48:22;10.20;98.40
16412;DHT22;8315;52.104;6.304;2023-02-18T00:50:49;10.20;98.40
16412;DHT22;8315;52.104;6.304;2023-02-18T00:53:15;10.20;98.40
16412;DHT22;8315;52.104;6.304;2023-02-18T00:55:43;10.20;98.40
16412;DHT22;8315;52.104;6.304;2023-02-18T00:58:12;10.20;98.40
16412;DHT22;8315;52.104;6.304;2023-02-18T01:00:39;10.20;98.40
16412;DHT22;8315;52.104;6.304;2023-02-18T01:03:07;10.20;98.40
16412;DHT22;8315;52.104;6.304;2023-02-18T01:05:34;10.20;98.40
16412;DHT22;8315;52.104;6.304;2023-02-18T01:08:04;10.20;98.40
16412;DHT22;8315;52.104;6.304;2023-02-18T01:10:32;10.10;98.40
16412;DHT22;8315;52.104;6.304;2023-02-18T01:12:59;10.10;98.40
16412;DHT22;8315;52.104;6.304;2023-02-18T01:15:28;10.10;98.40
16412;DHT22;8315;52.104;6.304;2023-02-18T01:17:55;10.10;98.40
16412;DHT22;8315;52.104;6.304;2023-02-18T01:20:23;10.10;98.40
16412;DHT22;8315;52.104;6.304;2023-02-18T01:22:51;10.10;98.40
16412;DHT22;8315;52.104;6.304;2023-02-18T01:25:20;10.10;98.40
16412;DHT22;8315;52.104;6.304;2023-02-18T01:27:47;10.10;98.40
16412;DHT22;8315;52.104;6.304;2023-02-18T01:30:14;10.10;98.40
16412;DHT22;8315;52.104;6.304;2023-02-18T01:32:44;10.10;98.40
16412;DHT22;8315;52.104;6.304;2023-02-18T01:35:11;10.10;98.40
16412;DHT22;8315;52.104;6.304;2023-02-18T01:37:40;10.10;98.40
16412;DHT22;8315;52.104;6.304;2023-02-18T01:40:08;10.10;98.40
16412;DHT22;8315;52.104;6.304;2023-02-18T01:42:37;10.10;98.40
16412;DHT22;8315;52.104;6.304;2023-02-18T01:48:07;10.10;98.40
16412;DHT22;8315;52.104;6.304;2023-02-18T01:50:38;10.10;98.40
16412;DHT22;8315;52.104;6.304;2023-02-18T01:53:07;10.10;98.40
16412;DHT22;8315;52.104;6.304;2023-02-18T01:55:34;10.10;98.40
16412;DHT22;8315;52.104;6.304;2023-02-18T01:58:04;10.10;98.40
16412;DHT22;8315;52.104;6.304;2023-02-18T02:00:31;10.10;98.40
16412;DHT22;8315;52.104;6.304;2023-02-18T02:02:58;10.10;98.40
16412;DHT22;8315;52.104;6.304;2023-02-18T02:05:26;10.10;98.40
16412;DHT22;8315;52.104;6.304;2023-02-18T02:07:56;10.10;98.40
16412;DHT22;8315;52.104;6.304;2023-02-18T02:10:25;10.10;98.40
16412;DHT22;8315;52.104;6.304;2023-02-18T02:12:57;10.10;98.40
16412;DHT22;8315;52.104;6.304;2023-02-18T02:15:33;10.00;98.40
16412;DHT22;8315;52.104;6.304;2023-02-18T02:18:11;10.00;98.40
16412;DHT22;8315;52.104;6.304;2023-02-18T02:20:49;10.00;98.40
16412;DHT22;8315;52.104;6.304;2023-02-18T02:26:52;10.10;98.40
16412;DHT22;8315;52.104;6.304;2023-02-18T02:35:38;10.00;98.40
16412;DHT22;8315;52.104;6.304;2023-02-18T02:38:10;10.00;98.40
16412;DHT22;8315;52.104;6.304;2023-02-18T02:40:42;10.00;98.40
16412;DHT22;8315;52.104;6.304;2023-02-18T02:43:14;10.00;98.40
16412;DHT22;8315;52.104;6.304;2023-02-18T02:45:48;10.00;98.40
16412;DHT22;8315;52.104;6.304;2023-02-18T02:48:20;10.00;98.40
16412;DHT22;8315;52.104;6.304;2023-02-18T02:50:55;10.10;98.40
16412;DHT22;8315;52.104;6.304;2023-02-18T02:53:29;10.10;98.40
16412;DHT22;8315;52.104;6.304;2023-02-18T02:55:56;10.10;98.40
16412;DHT22;8315;52.104;6.304;2023-02-18T02:58:24;10.10;98.40
16412;DHT22;8315;52.104;6.304;2023-02-18T03:00:55;10.10;98.40
16412;DHT22;8315;52.104;6.304;2023-02-18T03:03:47;10.10;98.40
16412;DHT22;8315;52.104;6.304;2023-02-18T03:06:53;10.10;98.40
16412;DHT22;8315;52.104;6.304;2023-02-18T03:09:30;10.10;98.40
16412;DHT22;8315;52.104;6.304;2023-02-18T03:12:03;10.10;98.40
16412;DHT22;8315;52.104;6.304;2023-02-18T03:14:37;10.10;98.40
16412;DHT22;8315;52.104;6.304;2023-02-18T03:17:10;10.10;98.40
16412;DHT22;8315;52.104;6.304;2023-02-18T03:19:39;10.20;98.40
16412;DHT22;8315;52.104;6.304;2023-02-18T03:22:10;10.20;98.40
16412;DHT22;8315;52.104;6.304;2023-02-18T03:24:39;10.20;98.40
16412;DHT22;8315;52.104;6.304;2023-02-18T03:27:08;10.20;98.40
16412;DHT22;8315;52.104;6.304;2023-02-18T03:29:38;10.20;98.40
16412;DHT22;8315;52.104;6.304;2023-02-18T03:32:05;10.20;98.40
16412;DHT22;8315;52.104;6.304;2023-02-18T03:34:34;10.20;98.40
16412;DHT22;8315;52.104;6.304;2023-02-18T03:37:05;10.20;98.40
16412;DHT22;8315;52.104;6.304;2023-02-18T03:39:35;10.20;98.40
16412;DHT22;8315;52.104;6.304;2023-02-18T03:42:03;10.20;98.40
16412;DHT22;8315;52.104;6.304;2023-02-18T03:44:30;10.30;98.40
16412;DHT22;8315;52.104;6.304;2023-02-18T03:46:57;10.20;98.40
16412;DHT22;8315;52.104;6.304;2023-02-18T03:49:24;10.20;98.40
16412;DHT22;8315;52.104;6.304;2023-02-18T03:51:51;10.30;98.40
16412;DHT22;8315;52.104;6.304;2023-02-18T03:54:18;10.30;98.40
16412;DHT22;8315;52.104;6.304;2023-02-18T03:56:46;10.30;98.40
16412;DHT22;8315;52.104;6.304;2023-02-18T03:59:13;10.40;98.40
16412;DHT22;8315;52.104;6.304;2023-02-18T04:01:40;10.40;98.40
16412;DHT22;8315;52.104;6.304;2023-02-18T04:04:07;10.40;98.40
16412;DHT22;8315;52.104;6.304;2023-02-18T04:06:33;10.40;98.40
16412;DHT22;8315;52.104;6.304;2023-02-18T04:09:00;10.40;98.40
16412;DHT22;8315;52.104;6.304;2023-02-18T04:11:34;10.40;98.40
16412;DHT22;8315;52.104;6.304;2023-02-18T04:14:02;10.40;98.40
16412;DHT22;8315;52.104;6.304;2023-02-18T04:16:29;10.50;98.40
16412;DHT22;8315;52.104;6.304;2023-02-18T04:18:56;10.50;98.40
16412;DHT22;8315;52.104;6.304;2023-02-18T04:21:23;10.50;98.40
16412;DHT22;8315;52.104;6.304;2023-02-18T04:23:50;10.50;98.40
16412;DHT22;8315;52.104;6.304;2023-02-18T04:26:16;10.50;98.40
16412;DHT22;8315;52.104;6.304;2023-02-18T04:28:43;10.50;98.40
16412;DHT22;8315;52.104;6.304;2023-02-18T04:31:11;10.50;98.40
16412;DHT22;8315;52.104;6.304;2023-02-18T04:33:38;10.60;98.40
16412;DHT22;8315;52.104;6.304;2023-02-18T04:36:05;10.60;98.40
16412;DHT22;8315;52.104;6.304;2023-02-18T04:38:32;10.60;98.40
16412;DHT22;8315;52.104;6.304;2023-02-18T04:40:59;10.60;98.40
16412;DHT22;8315;52.104;6.304;2023-02-18T04:43:26;10.60;98.40
16412;DHT22;8315;52.104;6.304;2023-02-18T04:45:52;10.60;98.40
16412;DHT22;8315;52.104;6.304;2023-02-18T04:48:21;10.60;98.40
16412;DHT22;8315;52.104;6.304;2023-02-18T04:50:47;10.60;98.40
16412;DHT22;8315;52.104;6.304;2023-02-18T04:53:14;10.60;98.40
16412;DHT22;8315;52.104;6.304;2023-02-18T04:55:41;10.60;98.40
16412;DHT22;8315;52.104;6.304;2023-02-18T04:58:08;10.70;98.40
16412;DHT22;8315;52.104;6.304;2023-02-18T05:00:35;10.70;98.40
16412;DHT22;8315;52.104;6.304;2023-02-18T05:03:02;10.70;98.40
16412;DHT22;8315;52.104;6.304;2023-02-18T05:05:30;10.70;98.40
16412;DHT22;8315;52.104;6.304;2023-02-18T05:07:57;10.70;98.40
16412;DHT22;8315;52.104;6.304;2023-02-18T05:10:23;10.70;98.40
16412;DHT22;8315;52.104;6.304;2023-02-18T05:12:50;10.70;98.40
16412;DHT22;8315;52.104;6.304;2023-02-18T05:15:17;10.70;98.40
16412;DHT22;8315;52.104;6.304;2023-02-18T05:17:44;10.70;98.40
16412;DHT22;8315;52.104;6.304;2023-02-18T05:20:11;10.70;98.40
16412;DHT22;8315;52.104;6.304;2023-02-18T05:22:39;10.70;98.40
16412;DHT22;8315;52.104;6.304;2023-02-18T05:25:06;10.70;98.40
16412;DHT22;8315;52.104;6.304;2023-02-18T05:27:33;10.70;98.40
16412;DHT22;8315;52.104;6.304;2023-02-18T05:30:00;10.70;98.40
16412;DHT22;8315;52.104;6.304;2023-02-18T05:32:27;10.70;98.40
16412;DHT22;8315;52.104;6.304;2023-02-18T05:34:54;10.70;98.40
16412;DHT22;8315;52.104;6.304;2023-02-18T05:37:20;10.70;98.40
16412;DHT22;8315;52.104;6.304;2023-02-18T05:39:49;10.70;98.40
16412;DHT22;8315;52.104;6.304;2023-02-18T05:42:16;10.70;98.40
16412;DHT22;8315;52.104;6.304;2023-02-18T05:44:43;10.70;98.40
16412;DHT22;8315;52.104;6.304;2023-02-18T05:47:10;10.70;98.40
16412;DHT22;8315;52.104;6.304;2023-02-18T05:49:39;10.70;98.40
16412;DHT22;8315;52.104;6.304;2023-02-18T05:52:07;10.70;98.40
16412;DHT22;8315;52.104;6.304;2023-02-18T05:54:34;10.70;98.40
16412;DHT22;8315;52.104;6.304;2023-02-18T05:57:03;10.70;98.40
16412;DHT22;8315;52.104;6.304;2023-02-18T05:59:30;10.70;98.40
16412;DHT22;8315;52.104;6.304;2023-02-18T06:01:57;10.70;98.40
16412;DHT22;8315;52.104;6.304;2023-02-18T06:04:24;10.70;98.40
16412;DHT22;8315;52.104;6.304;2023-02-18T06:06:51;10.70;98.40
16412;DHT22;8315;52.104;6.304;2023-02-18T06:09:19;10.70;98.40
16412;DHT22;8315;52.104;6.304;2023-02-18T06:11:45;10.70;98.40
16412;DHT22;8315;52.104;6.304;2023-02-18T06:14:14;10.70;98.40
16412;DHT22;8315;52.104;6.304;2023-02-18T06:16:40;10.70;98.40
16412;DHT22;8315;52.104;6.304;2023-02-18T06:19:07;10.70;98.40
16412;DHT22;8315;52.104;6.304;2023-02-18T06:21:34;10.70;98.40
16412;DHT22;8315;52.104;6.304;2023-02-18T06:24:01;10.70;98.40
16412;DHT22;8315;52.104;6.304;2023-02-18T06:26:28;10.70;98.40
16412;DHT22;8315;52.104;6.304;2023-02-18T06:28:55;10.70;98.40
16412;DHT22;8315;52.104;6.304;2023-02-18T06:31:23;10.70;98.40
16412;DHT22;8315;52.104;6.304;2023-02-18T06:33:50;10.70;98.40
16412;DHT22;8315;52.104;6.304;2023-02-18T06:36:16;10.70;98.40
16412;DHT22;8315;52.104;6.304;2023-02-18T06:38:43;10.70;98.40
16412;DHT22;8315;52.104;6.304;2023-02-18T06:41:11;10.70;98.40
16412;DHT22;8315;52.104;6.304;2023-02-18T06:43:39;10.70;98.40
16412;DHT22;8315;52.104;6.304;2023-02-18T06:46:06;10.70;98.40
16412;DHT22;8315;52.104;6.304;2023-02-18T06:48:34;10.70;98.40
16412;DHT22;8315;52.104;6.304;2023-02-18T06:51:02;10.70;98.40
16412;DHT22;8315;52.104;6.304;2023-02-18T06:53:30;10.70;98.40
16412;DHT22;8315;52.104;6.304;2023-02-18T06:55:57;10.70;98.40
16412;DHT22;8315;52.104;6.304;2023-02-18T06:58:24;10.70;98.40
16412;DHT22;8315;52.104;6.304;2023-02-18T07:00:51;10.70;98.40
16412;DHT22;8315;52.104;6.304;2023-02-18T07:03:18;10.70;98.40
16412;DHT22;8315;52.104;6.304;2023-02-18T07:05:46;10.70;98.40
16412;DHT22;8315;52.104;6.304;2023-02-18T07:08:12;10.70;98.40
16412;DHT22;8315;52.104;6.304;2023-02-18T07:10:39;10.70;98.40
16412;DHT22;8315;52.104;6.304;2023-02-18T07:13:06;10.70;98.40
16412;DHT22;8315;52.104;6.304;2023-02-18T07:15:33;10.60;98.40
16412;DHT22;8315;52.104;6.304;2023-02-18T07:18:00;10.60;98.40
16412;DHT22;8315;52.104;6.304;2023-02-18T07:20:27;10.60;98.40
16412;DHT22;8315;52.104;6.304;2023-02-18T07:22:55;10.60;98.40
16412;DHT22;8315;52.104;6.304;2023-02-18T07:25:22;10.50;98.40
16412;DHT22;8315;52.104;6.304;2023-02-18T07:27:50;10.50;98.40
16412;DHT22;8315;52.104;6.304;2023-02-18T07:30:17;10.50;98.40
16412;DHT22;8315;52.104;6.304;2023-02-18T07:32:44;10.50;98.40
16412;DHT22;8315;52.104;6.304;2023-02-18T07:35:12;10.50;98.40
16412;DHT22;8315;52.104;6.304;2023-02-18T07:37:39;10.50;98.40
16412;DHT22;8315;52.104;6.304;2023-02-18T07:40:08;10.50;98.40
16412;DHT22;8315;52.104;6.304;2023-02-18T07:42:36;10.50;98.40
16412;DHT22;8315;52.104;6.304;2023-02-18T07:45:03;10.50;98.40
16412;DHT22;8315;52.104;6.304;2023-02-18T07:47:30;10.50;98.40
16412;DHT22;8315;52.104;6.304;2023-02-18T07:49:57;10.50;98.40
16412;DHT22;8315;52.104;6.304;2023-02-18T07:52:24;10.50;98.40
16412;DHT22;8315;52.104;6.304;2023-02-18T07:54:50;10.60;98.40
16412;DHT22;8315;52.104;6.304;2023-02-18T07:57:19;10.50;98.40
16412;DHT22;8315;52.104;6.304;2023-02-18T07:59:45;10.50;98.40
16412;DHT22;8315;52.104;6.304;2023-02-18T08:02:13;10.60;98.40
16412;DHT22;8315;52.104;6.304;2023-02-18T08:04:43;10.60;98.40
16412;DHT22;8315;52.104;6.304;2023-02-18T08:07:11;10.60;98.40
16412;DHT22;8315;52.104;6.304;2023-02-18T08:09:39;10.60;98.40
16412;DHT22;8315;52.104;6.304;2023-02-18T08:12:06;10.60;98.40
16412;DHT22;8315;52.104;6.304;2023-02-18T08:14:34;10.60;98.40
16412;DHT22;8315;52.104;6.304;2023-02-18T08:17:01;10.60;98.40
16412;DHT22;8315;52.104;6.304;2023-02-18T08:19:28;10.60;98.40
16412;DHT22;8315;52.104;6.304;2023-02-18T08:21:55;10.60;98.40
16412;DHT22;8315;52.104;6.304;2023-02-18T08:24:22;10.60;98.40
16412;DHT22;8315;52.104;6.304;2023-02-18T08:26:49;10.50;98.40
16412;DHT22;8315;52.104;6.304;2023-02-18T08:29:16;10.50;98.40
16412;DHT22;8315;52.104;6.304;2023-02-18T08:31:44;10.50;98.40
16412;DHT22;8315;52.104;6.304;2023-02-18T08:34:11;10.50;98.40
16412;DHT22;8315;52.104;6.304;2023-02-18T08:36:38;10.50;98.40
16412;DHT22;8315;52.104;6.304;2023-02-18T08:39:04;10.50;98.40
16412;DHT22;8315;52.104;6.304;2023-02-18T08:41:31;10.50;98.40
16412;DHT22;8315;52.104;6.304;2023-02-18T08:43:58;10.40;98.40
16412;DHT22;8315;52.104;6.304;2023-02-18T08:46:25;10.40;98.40
16412;DHT22;8315;52.104;6.304;2023-02-18T08:48:53;10.40;98.40
16412;DHT22;8315;52.104;6.304;2023-02-18T08:51:21;10.40;98.40
16412;DHT22;8315;52.104;6.304;2023-02-18T08:53:48;10.40;98.40
16412;DHT22;8315;52.104;6.304;2023-02-18T08:56:15;10.40;98.40
16412;DHT22;8315;52.104;6.304;2023-02-18T08:58:43;10.30;98.40
16412;DHT22;8315;52.104;6.304;2023-02-18T09:01:10;10.40;98.40
16412;DHT22;8315;52.104;6.304;2023-02-18T09:03:38;10.40;98.40
16412;DHT22;8315;52.104;6.304;2023-02-18T09:06:07;10.40;98.40
16412;DHT22;8315;52.104;6.304;2023-02-18T09:08:34;10.40;98.40
16412;DHT22;8315;52.104;6.304;2023-02-18T09:11:01;10.30;98.40
16412;DHT22;8315;52.104;6.304;2023-02-18T09:13:29;10.40;98.40
16412;DHT22;8315;52.104;6.304;2023-02-18T09:15:57;10.40;98.40
16412;DHT22;8315;52.104;6.304;2023-02-18T09:18:24;10.30;98.40
16412;DHT22;8315;52.104;6.304;2023-02-18T09:20:54;10.20;98.40
16412;DHT22;8315;52.104;6.304;2023-02-18T09:23:23;10.20;98.40
16412;DHT22;8315;52.104;6.304;2023-02-18T09:25:49;10.20;98.40
16412;DHT22;8315;52.104;6.304;2023-02-18T09:28:16;10.20;98.40
16412;DHT22;8315;52.104;6.304;2023-02-18T09:30:43;10.10;98.40
16412;DHT22;8315;52.104;6.304;2023-02-18T09:33:10;10.10;98.40
16412;DHT22;8315;52.104;6.304;2023-02-18T09:35:38;10.00;98.40
16412;DHT22;8315;52.104;6.304;2023-02-18T09:38:06;10.00;98.40
16412;DHT22;8315;52.104;6.304;2023-02-18T09:40:35;10.00;98.40
16412;DHT22;8315;52.104;6.304;2023-02-18T09:43:03;10.00;98.40
16412;DHT22;8315;52.104;6.304;2023-02-18T09:45:30;9.90;98.40
16412;DHT22;8315;52.104;6.304;2023-02-18T09:47:57;9.90;98.40
16412;DHT22;8315;52.104;6.304;2023-02-18T09:50:27;9.90;98.40
16412;DHT22;8315;52.104;6.304;2023-02-18T09:52:57;9.80;98.40
16412;DHT22;8315;52.104;6.304;2023-02-18T09:55:26;9.80;98.40
16412;DHT22;8315;52.104;6.304;2023-02-18T09:57:56;9.80;98.40
16412;DHT22;8315;52.104;6.304;2023-02-18T10:00:27;9.80;98.40
16412;DHT22;8315;52.104;6.304;2023-02-18T10:02:56;9.80;98.40
16412;DHT22;8315;52.104;6.304;2023-02-18T10:05:24;9.80;98.40
16412;DHT22;8315;52.104;6.304;2023-02-18T10:07:53;9.80;98.40
16412;DHT22;8315;52.104;6.304;2023-02-18T10:10:24;9.80;98.40
16412;DHT22;8315;52.104;6.304;2023-02-18T10:12:56;9.80;98.40
16412;DHT22;8315;52.104;6.304;2023-02-18T10:15:26;9.80;98.40
16412;DHT22;8315;52.104;6.304;2023-02-18T10:17:54;9.80;98.40
16412;DHT22;8315;52.104;6.304;2023-02-18T10:20:22;9.80;98.40
16412;DHT22;8315;52.104;6.304;2023-02-18T10:22:51;9.80;98.40
16412;DHT22;8315;52.104;6.304;2023-02-18T10:25:20;9.80;98.40
16412;DHT22;8315;52.104;6.304;2023-02-18T10:27:48;9.80;98.40
16412;DHT22;8315;52.104;6.304;2023-02-18T10:30:21;9.80;98.40
16412;DHT22;8315;52.104;6.304;2023-02-18T10:32:51;9.80;98.40
16412;DHT22;8315;52.104;6.304;2023-02-18T10:35:22;9.80;98.40
16412;DHT22;8315;52.104;6.304;2023-02-18T10:37:56;9.80;98.40
16412;DHT22;8315;52.104;6.304;2023-02-18T10:40:32;9.80;98.40
16412;DHT22;8315;52.104;6.304;2023-02-18T10:43:04;9.80;98.40
16412;DHT22;8315;52.104;6.304;2023-02-18T10:45:40;9.80;98.40
16412;DHT22;8315;52.104;6.304;2023-02-18T10:48:18;9.80;98.40
16412;DHT22;8315;52.104;6.304;2023-02-18T10:50:53;9.80;98.40
16412;DHT22;8315;52.104;6.304;2023-02-18T10:53:23;9.80;98.40
16412;DHT22;8315;52.104;6.304;2023-02-18T10:55:55;9.90;98.40
16412;DHT22;8315;52.104;6.304;2023-02-18T10:58:28;9.80;98.40
16412;DHT22;8315;52.104;6.304;2023-02-18T11:00:58;9.90;98.40
16412;DHT22;8315;52.104;6.304;2023-02-18T11:03:37;9.90;98.40
16412;DHT22;8315;52.104;6.304;2023-02-18T11:06:05;9.90;98.40
16412;DHT22;8315;52.104;6.304;2023-02-18T11:08:41;9.90;98.40
16412;DHT22;8315;52.104;6.304;2023-02-18T11:11:12;10.00;98.40
16412;DHT22;8315;52.104;6.304;2023-02-18T11:13:40;10.00;98.40
16412;DHT22;8315;52.104;6.304;2023-02-18T11:16:08;10.10;98.40
16412;DHT22;8315;52.104;6.304;2023-02-18T11:18:38;10.10;98.40
16412;DHT22;8315;52.104;6.304;2023-02-18T11:21:17;10.10;98.40
16412;DHT22;8315;52.104;6.304;2023-02-18T11:23:48;10.10;98.40
16412;DHT22;8315;52.104;6.304;2023-02-18T11:26:16;10.20;98.40
16412;DHT22;8315;52.104;6.304;2023-02-18T11:28:44;10.30;98.40
16412;DHT22;8315;52.104;6.304;2023-02-18T11:31:16;10.40;98.40
16412;DHT22;8315;52.104;6.304;2023-02-18T11:33:47;10.50;98.40
16412;DHT22;8315;52.104;6.304;2023-02-18T11:36:17;10.50;98.40
16412;DHT22;8315;52.104;6.304;2023-02-18T11:38:49;10.50;98.40
16412;DHT22;8315;52.104;6.304;2023-02-18T11:41:17;10.60;98.40
16412;DHT22;8315;52.104;6.304;2023-02-18T11:43:46;10.70;98.40
16412;DHT22;8315;52.104;6.304;2023-02-18T11:46:15;10.70;98.40
16412;DHT22;8315;52.104;6.304;2023-02-18T11:48:44;10.80;98.40
16412;DHT22;8315;52.104;6.304;2023-02-18T11:51:14;10.90;98.40
16412;DHT22;8315;52.104;6.304;2023-02-18T11:53:53;10.90;98.40
16412;DHT22;8315;52.104;6.304;2023-02-18T11:56:24;10.90;98.40
16412;DHT22;8315;52.104;6.304;2023-02-18T11:58:51;10.90;98.40
16412;DHT22;8315;52.104;6.304;2023-02-18T12:01:21;10.90;98.40
16412;DHT22;8315;52.104;6.304;2023-02-18T12:03:55;10.90;98.40
16412;DHT22;8315;52.104;6.304;2023-02-18T12:06:25;10.90;98.40
16412;DHT22;8315;52.104;6.304;2023-02-18T12:08:55;10.90;98.40
16412;DHT22;8315;52.104;6.304;2023-02-18T12:11:26;10.90;98.40
16412;DHT22;8315;52.104;6.304;2023-02-18T12:13:54;10.90;98.40
16412;DHT22;8315;52.104;6.304;2023-02-18T12:16:32;10.90;98.40
16412;DHT22;8315;52.104;6.304;2023-02-18T12:19:25;10.90;98.40
16412;DHT22;8315;52.104;6.304;2023-02-18T12:22:04;10.90;98.40
16412;DHT22;8315;52.104;6.304;2023-02-18T12:24:39;10.80;98.40
16412;DHT22;8315;52.104;6.304;2023-02-18T12:27:11;10.80;98.40
16412;DHT22;8315;52.104;6.304;2023-02-18T12:29:46;10.80;98.40
16412;DHT22;8315;52.104;6.304;2023-02-18T12:32:25;10.70;98.40
16412;DHT22;8315;52.104;6.304;2023-02-18T12:35:00;10.70;98.40
16412;DHT22;8315;52.104;6.304;2023-02-18T12:37:51;10.60;98.40
16412;DHT22;8315;52.104;6.304;2023-02-18T12:40:38;10.60;98.40
16412;DHT22;8315;52.104;6.304;2023-02-18T12:43:09;10.60;98.40
16412;DHT22;8315;52.104;6.304;2023-02-18T12:45:48;10.60;98.40
16412;DHT22;8315;52.104;6.304;2023-02-18T12:51:19;10.60;98.40
16412;DHT22;8315;52.104;6.304;2023-02-18T12:54:01;10.60;98.40
16412;DHT22;8315;52.104;6.304;2023-02-18T12:56:40;10.70;98.40
16412;DHT22;8315;52.104;6.304;2023-02-18T13:02:22;10.70;98.40
16412;DHT22;8315;52.104;6.304;2023-02-18T13:05:02;10.70;98.40
16412;DHT22;8315;52.104;6.304;2023-02-18T13:10:43;10.80;98.40
16412;DHT22;8315;52.104;6.304;2023-02-18T13:13:23;10.90;98.40
16412;DHT22;8315;52.104;6.304;2023-02-18T13:15:52;10.90;98.40
16412;DHT22;8315;52.104;6.304;2023-02-18T13:18:23;10.90;98.40
16412;DHT22;8315;52.104;6.304;2023-02-18T13:20:54;11.00;98.40
16412;DHT22;8315;52.104;6.304;2023-02-18T13:23:22;11.10;98.40
16412;DHT22;8315;52.104;6.304;2023-02-18T13:25:54;11.20;98.40
16412;DHT22;8315;52.104;6.304;2023-02-18T13:28:25;11.20;98.40
16412;DHT22;8315;52.104;6.304;2023-02-18T13:30:58;11.20;98.40
16412;DHT22;8315;52.104;6.304;2023-02-18T13:33:33;11.20;98.40
16412;DHT22;8315;52.104;6.304;2023-02-18T13:36:05;11.10;98.40
16412;DHT22;8315;52.104;6.304;2023-02-18T13:41:22;11.00;98.40
16412;DHT22;8315;52.104;6.304;2023-02-18T13:43:51;11.00;98.40
16412;DHT22;8315;52.104;6.304;2023-02-18T13:46:18;10.90;98.40
16412;DHT22;8315;52.104;6.304;2023-02-18T13:48:47;10.90;98.40
16412;DHT22;8315;52.104;6.304;2023-02-18T13:51:17;10.90;98.40
16412;DHT22;8315;52.104;6.304;2023-02-18T13:53:57;10.90;98.40
16412;DHT22;8315;52.104;6.304;2023-02-18T13:56:26;10.90;98.40
16412;DHT22;8315;52.104;6.304;2023-02-18T13:58:55;10.90;98.40
16412;DHT22;8315;52.104;6.304;2023-02-18T14:01:35;10.90;98.40
16412;DHT22;8315;52.104;6.304;2023-02-18T14:04:32;10.90;98.40
16412;DHT22;8315;52.104;6.304;2023-02-18T14:09:55;10.90;98.40
16412;DHT22;8315;52.104;6.304;2023-02-18T14:12:24;10.90;98.40
16412;DHT22;8315;52.104;6.304;2023-02-18T14:15:01;10.90;98.40
16412;DHT22;8315;52.104;6.304;2023-02-18T14:17:48;10.90;98.40
16412;DHT22;8315;52.104;6.304;2023-02-18T14:20:31;11.00;98.40
16412;DHT22;8315;52.104;6.304;2023-02-18T14:26:09;11.00;98.40
16412;DHT22;8315;52.104;6.304;2023-02-18T14:28:48;11.10;98.40
16412;DHT22;8315;52.104;6.304;2023-02-18T14:37:39;11.10;98.40
16412;DHT22;8315;52.104;6.304;2023-02-18T14:40:19;11.10;98.40
16412;DHT22;8315;52.104;6.304;2023-02-18T14:42:52;11.10;98.40
16412;DHT22;8315;52.104;6.304;2023-02-18T14:45:27;11.10;98.40
16412;DHT22;8315;52.104;6.304;2023-02-18T14:48:04;11.10;98.40
16412;DHT22;8315;52.104;6.304;2023-02-18T14:50:47;11.10;98.40
16412;DHT22;8315;52.104;6.304;2023-02-18T14:53:16;11.10;98.40
16412;DHT22;8315;52.104;6.304;2023-02-18T14:55:46;11.10;98.40
16412;DHT22;8315;52.104;6.304;2023-02-18T14:58:23;11.10;98.40
16412;DHT22;8315;52.104;6.304;2023-02-18T15:00:52;11.20;98.40
16412;DHT22;8315;52.104;6.304;2023-02-18T15:03:19;11.20;98.40
16412;DHT22;8315;52.104;6.304;2023-02-18T15:05:47;11.20;98.40
16412;DHT22;8315;52.104;6.304;2023-02-18T15:08:16;11.20;98.40
16412;DHT22;8315;52.104;6.304;2023-02-18T15:10:45;11.20;98.40
16412;DHT22;8315;52.104;6.304;2023-02-18T15:13:16;11.20;98.40
16412;DHT22;8315;52.104;6.304;2023-02-18T15:15:44;11.20;98.40
16412;DHT22;8315;52.104;6.304;2023-02-18T15:18:17;11.20;98.40
16412;DHT22;8315;52.104;6.304;2023-02-18T15:20:47;11.30;98.40
16412;DHT22;8315;52.104;6.304;2023-02-18T15:23:14;11.30;98.40
16412;DHT22;8315;52.104;6.304;2023-02-18T15:25:42;11.30;98.40
16412;DHT22;8315;52.104;6.304;2023-02-18T15:28:21;11.30;98.40
16412;DHT22;8315;52.104;6.304;2023-02-18T15:30:49;11.30;98.40
16412;DHT22;8315;52.104;6.304;2023-02-18T15:33:17;11.30;98.40
16412;DHT22;8315;52.104;6.304;2023-02-18T15:35:45;11.40;98.40
16412;DHT22;8315;52.104;6.304;2023-02-18T15:38:13;11.40;98.40
16412;DHT22;8315;52.104;6.304;2023-02-18T15:40:42;11.40;98.40
16412;DHT22;8315;52.104;6.304;2023-02-18T15:43:11;11.40;98.40
16412;DHT22;8315;52.104;6.304;2023-02-18T15:45:42;11.40;98.40
16412;DHT22;8315;52.104;6.304;2023-02-18T15:48:12;11.40;98.40
16412;DHT22;8315;52.104;6.304;2023-02-18T15:50:47;11.40;98.40
16412;DHT22;8315;52.104;6.304;2023-02-18T15:53:16;11.40;98.40
16412;DHT22;8315;52.104;6.304;2023-02-18T15:55:45;11.40;98.40
16412;DHT22;8315;52.104;6.304;2023-02-18T15:58:14;11.40;98.40
16412;DHT22;8315;52.104;6.304;2023-02-18T16:00:48;11.30;98.40
16412;DHT22;8315;52.104;6.304;2023-02-18T16:03:19;11.30;98.40
16412;DHT22;8315;52.104;6.304;2023-02-18T16:05:47;11.30;98.40
16412;DHT22;8315;52.104;6.304;2023-02-18T16:08:14;11.30;98.40
16412;DHT22;8315;52.104;6.304;2023-02-18T16:10:44;11.30;98.40
16412;DHT22;8315;52.104;6.304;2023-02-18T16:13:13;11.30;98.40
16412;DHT22;8315;52.104;6.304;2023-02-18T16:15:42;11.30;98.40
16412;DHT22;8315;52.104;6.304;2023-02-18T16:21:20;11.30;98.40
16412;DHT22;8315;52.104;6.304;2023-02-18T16:23:50;11.30;98.40
16412;DHT22;8315;52.104;6.304;2023-02-18T16:26:22;11.30;98.40
16412;DHT22;8315;52.104;6.304;2023-02-18T16:28:53;11.30;98.40
16412;DHT22;8315;52.104;6.304;2023-02-18T16:31:20;11.30;98.40
16412;DHT22;8315;52.104;6.304;2023-02-18T16:33:49;11.30;98.40
16412;DHT22;8315;52.104;6.304;2023-02-18T16:36:16;11.30;98.40
16412;DHT22;8315;52.104;6.304;2023-02-18T16:38:43;11.30;98.40
16412;DHT22;8315;52.104;6.304;2023-02-18T16:41:11;11.30;98.40
16412;DHT22;8315;52.104;6.304;2023-02-18T16:43:38;11.30;98.40